Artas, SD

1:53 AM CDT on September 02, 2014 (GMT -0500)
Eureka, South Dakota | Change Station
CLOSE
Current Station
Personal Weather Station
Location: Eureka, SD
Elevation: 1871 ft
Nearby Weather Stations

Elev 1871 ft 45.77 °N, 99.62 °W | Updated 1 second ago

Clear
Clear
51.6 °F
Feels Like 51.6 °F
N
0.0
Wind Variable Wind from SW
Gusts 1.0 mph

Today
High -- | Low -- °F
--% Chance of Precip.
Yesterday
High -- | Low -- °F
Precip. -- in
7:00 AM 8:14 PM
Waxing Crescent, 48% visible
Pressure 29.88 in
Visibility 10.0 miles
Clouds Clear
Dew Point 50 °F
Humidity 94%
Rainfall 0.00 in
Snow Depth Not available.
UV 0 out of 12
Pollen 9.40 out of 12
Air Quality Not available.
Flu Activity Not available.
METAR K7L2 020635Z AUTO 20004KT 10SM CLR 09/09 A2988 RMK AO2

More Conditions Fewer Conditions

Pressure 29.88 in
Visibility 10.0 miles
Clouds Clear
Dew Point 50 °F
Humidity 94%
Rainfall 0.00 in
Snow Depth Not available.
UV 0 out of 12
Pollen 9.40 out of 12
Air Quality Not available.
Flu Activity Not available.
METAR K7L2 020635Z AUTO 20004KT 10SM CLR 09/09 A2988 RMK AO2

More Conditions Fewer Conditions

10-Day Weather Forecast

Almanac

Astronomy

Sep. 02, 2014 Rise Set
Actual Time 7:00 AM CDT 8:14 PM CDT
Civil Twilight 6:30 AM CDT 8:45 PM CDT
Nautical Twilight 5:53 AM CDT 9:22 PM CDT
Astronomical Twilight 5:13 AM CDT 10:01 PM CDT
Moon 3:08 PM CDT No Moon Set
Length of Visible Light 14h 15m
Length of Day
13h 13m
Tomorrow will be 3m 7s shorter.
Waxing Crescent, 48% of the Moon is Illuminated
Today
Waxing Crescent
Sep 2
First Quarter
Sep 8
Full
Sep 15
Last Quarter
Sep 24
New

Today's Extremes

State Highs State Lows

Community

WunderPhotos

Upload Photos

1,749,589 photos uploaded!

WunderBlogs® & News

Nearby

Snow Depth

Station Depth Elevation
North Rapid Creek 0 in 6130 ft
Blind Park 1 in 6890 ft

Earthquake Activity

City Distance Mag. Time & Date
No recent earthquake activity has been reported nearby.
Minimum magnitude displayed is 2.5.

Coastal Water Temperatures

Place Temperature
No Stations Reporting

Nearby Weather Stations